Accueil
METAR-TAF:

METAR-TAF

Aéroports :

Plate-forme pétrolière

Ula, Norvège

latitude: 59-06-39N, longitude: 2-50-45E, altitude: 0 m

Observation

Le bulletin a été fait il y a 20 minutes, à 00:50 UTC
Vent 28 kt de ouest/nord-ouest
Température 8°C
Humidité 93%
Pression 1025 hPa
Visibilité 10 km ou plus

METAR: ENLA 270050Z AUTO 30028KT 9999NDV FEW006/// OVC024/// 08/07 Q1025 W///S4

Heure: 02:10 (01:10 UTC)


TAF: absent

Observations et prévisions météorologiques de plus de 4000 aéroports (messages METAR et TAF).

Les stations disponibles sont représentées par des disques jaunes et rouges sur la carte.

Passer la souris dessus pour voir le nom de la station.

Cliquer dessus pour voir les observations et prévisions météorologiques.

Pour changer de carte: cliquez sur les boutons verts avec une croix noire pour zoomer, sur le bouton vert avec un tiret pour effectuer un zoom arrière, ou sur les flèches vertes pour les cartes adjacentes.


METAR-TAF: